Mahto, South Dakota
Current Conditions -  °F | °C
As of 10:52 AM on Saturday 25 Oct 2014 (Local Time) from KMBG Reporting Station
Clear Clear  
Wind Chill: 58°   Ceiling: Unl
Heat Index: 58°   Visibility: 10mi
Dew Point: 36°   Wind: 0mph
Humidity: 44%   Direction: NA
Pressure: 30.14"   Gusts: NA
Location:  45.76°N, 100.68°W
Report Text: KMBG 251652Z AUTO 00000KT 10SM CLR 14/02 A3014 RMK AO2 SLP207 T01440022
Loading
Personal Weather Stations






























Interactive Weather Map
Tropical Storm Tracking
New forecast layout! Learn more

10-Day Weather Forecast

Advertisements
Track Severe Weather on mobile